Kalalock, Washington
Current Conditions -  °F | °C
As of 6:17 PM on Saturday 25 Oct 2014 (Local Time) from KUIL Reporting Station
Light Rain Light Rain  
Wind Chill: 50°   Ceiling: 1600
Heat Index: 50°   Visibility: 2.5mi
Dew Point: 49°   Wind: 13mph
Humidity: 96%   Direction: 300°WNW
Pressure: 29.34"   Gusts: 26mph
Location:  47.9519°N, 124.29°W
Report Text: KUIL 260117Z AUTO 30011G23KT 2 1/2SM -RA BR SCT007 OVC016 10/09 A2934 RMK AO2 P0002 T01000094
Loading
Personal Weather Stations






























Interactive Weather Map
Tropical Storm Tracking
New forecast layout! Learn more

10-Day Weather Forecast

Advertisements
Track Severe Weather on mobile